sensor_id;sensor_type;location;lat;lon;timestamp;P1;durP1;ratioP1;P2;durP2;ratioP2
58992;SDS011;44782;0.000;0.000;2023-04-25T00:01:51;1.60;;;1.50;;
58992;SDS011;44782;0.000;0.000;2023-04-25T00:04:07;1.50;;;1.40;;
58992;SDS011;44782;0.000;0.000;2023-04-25T00:06:23;1.37;;;1.30;;
58992;SDS011;44782;0.000;0.000;2023-04-25T00:08:41;1.60;;;1.50;;
58992;SDS011;44782;0.000;0.000;2023-04-25T00:10:57;1.47;;;1.37;;
58992;SDS011;44782;0.000;0.000;2023-04-25T00:13:14;1.40;;;1.30;;
58992;SDS011;44782;0.000;0.000;2023-04-25T00:15:32;1.33;;;1.23;;
58992;SDS011;44782;0.000;0.000;2023-04-25T00:17:48;1.40;;;1.30;;
58992;SDS011;44782;0.000;0.000;2023-04-25T00:20:04;1.47;;;1.37;;
58992;SDS011;44782;0.000;0.000;2023-04-25T00:22:21;1.33;;;1.23;;
58992;SDS011;44782;0.000;0.000;2023-04-25T00:24:37;1.40;;;1.30;;
58992;SDS011;44782;0.000;0.000;2023-04-25T00:26:53;1.50;;;1.40;;
58992;SDS011;44782;0.000;0.000;2023-04-25T00:29:08;1.43;;;1.33;;
58992;SDS011;44782;0.000;0.000;2023-04-25T00:31:24;1.70;;;1.60;;
58992;SDS011;44782;0.000;0.000;2023-04-25T00:33:40;1.50;;;1.40;;
58992;SDS011;44782;0.000;0.000;2023-04-25T00:35:55;1.60;;;1.50;;
58992;SDS011;44782;0.000;0.000;2023-04-25T00:38:11;1.60;;;1.50;;
58992;SDS011;44782;0.000;0.000;2023-04-25T00:40:27;1.87;;;1.70;;
58992;SDS011;44782;0.000;0.000;2023-04-25T00:42:43;1.60;;;1.50;;
58992;SDS011;44782;0.000;0.000;2023-04-25T00:45:00;1.70;;;1.60;;
58992;SDS011;44782;0.000;0.000;2023-04-25T00:47:16;1.50;;;1.40;;
58992;SDS011;44782;0.000;0.000;2023-04-25T00:49:32;1.70;;;1.60;;
58992;SDS011;44782;0.000;0.000;2023-04-25T00:51:48;1.50;;;1.40;;
58992;SDS011;44782;0.000;0.000;2023-04-25T00:54:04;1.57;;;1.47;;
58992;SDS011;44782;0.000;0.000;2023-04-25T00:56:20;1.50;;;1.40;;
58992;SDS011;44782;0.000;0.000;2023-04-25T00:58:36;1.60;;;1.50;;
58992;SDS011;44782;0.000;0.000;2023-04-25T01:00:53;1.50;;;1.40;;
58992;SDS011;44782;0.000;0.000;2023-04-25T01:03:11;1.50;;;1.40;;
58992;SDS011;44782;0.000;0.000;2023-04-25T01:05:27;1.63;;;1.53;;
58992;SDS011;44782;0.000;0.000;2023-04-25T01:07:43;1.60;;;1.50;;
58992;SDS011;44782;0.000;0.000;2023-04-25T01:09:58;1.63;;;1.53;;
58992;SDS011;44782;0.000;0.000;2023-04-25T01:12:14;1.70;;;1.60;;
58992;SDS011;44782;0.000;0.000;2023-04-25T01:14:30;1.50;;;1.40;;
58992;SDS011;44782;0.000;0.000;2023-04-25T01:16:46;1.53;;;1.43;;
58992;SDS011;44782;0.000;0.000;2023-04-25T01:19:05;1.50;;;1.40;;
58992;SDS011;44782;0.000;0.000;2023-04-25T01:21:26;1.50;;;1.40;;
58992;SDS011;44782;0.000;0.000;2023-04-25T01:23:44;1.67;;;1.57;;
58992;SDS011;44782;0.000;0.000;2023-04-25T01:26:00;1.90;;;1.80;;
58992;SDS011;44782;0.000;0.000;2023-04-25T01:28:16;1.50;;;1.40;;
58992;SDS011;44782;0.000;0.000;2023-04-25T01:30:32;1.70;;;1.60;;
58992;SDS011;44782;0.000;0.000;2023-04-25T01:32:48;1.73;;;1.63;;
58992;SDS011;44782;0.000;0.000;2023-04-25T01:35:05;1.60;;;1.50;;
58992;SDS011;44782;0.000;0.000;2023-04-25T01:37:24;1.70;;;1.60;;
58992;SDS011;44782;0.000;0.000;2023-04-25T01:39:40;1.70;;;1.60;;
58992;SDS011;44782;0.000;0.000;2023-04-25T01:41:56;1.50;;;1.40;;
58992;SDS011;44782;0.000;0.000;2023-04-25T01:44:14;1.60;;;1.50;;
58992;SDS011;44782;0.000;0.000;2023-04-25T01:46:30;1.50;;;1.40;;
58992;SDS011;44782;0.000;0.000;2023-04-25T01:48:46;1.70;;;1.60;;
58992;SDS011;44782;0.000;0.000;2023-04-25T01:51:02;1.50;;;1.40;;
58992;SDS011;44782;0.000;0.000;2023-04-25T01:53:18;1.60;;;1.50;;
58992;SDS011;44782;0.000;0.000;2023-04-25T01:55:33;1.60;;;1.50;;
58992;SDS011;44782;0.000;0.000;2023-04-25T01:57:49;1.70;;;1.60;;
58992;SDS011;44782;0.000;0.000;2023-04-25T02:00:05;1.80;;;1.70;;
58992;SDS011;44782;0.000;0.000;2023-04-25T02:02:22;1.70;;;1.60;;
58992;SDS011;44782;0.000;0.000;2023-04-25T02:04:37;2.00;;;1.80;;
58992;SDS011;44782;0.000;0.000;2023-04-25T02:06:53;1.57;;;1.47;;
58992;SDS011;44782;0.000;0.000;2023-04-25T02:09:08;2.30;;;1.80;;
58992;SDS011;44782;0.000;0.000;2023-04-25T02:11:24;1.70;;;1.60;;
58992;SDS011;44782;0.000;0.000;2023-04-25T02:13:40;1.70;;;1.60;;
58992;SDS011;44782;0.000;0.000;2023-04-25T02:15:56;1.70;;;1.60;;
58992;SDS011;44782;0.000;0.000;2023-04-25T02:18:12;1.80;;;1.70;;
58992;SDS011;44782;0.000;0.000;2023-04-25T02:20:28;1.57;;;1.47;;
58992;SDS011;44782;0.000;0.000;2023-04-25T02:22:45;1.50;;;1.40;;
58992;SDS011;44782;0.000;0.000;2023-04-25T02:25:01;1.70;;;1.60;;
58992;SDS011;44782;0.000;0.000;2023-04-25T02:27:19;1.90;;;1.80;;
58992;SDS011;44782;0.000;0.000;2023-04-25T02:29:35;2.00;;;1.90;;
58992;SDS011;44782;0.000;0.000;2023-04-25T02:31:51;2.77;;;1.73;;
58992;SDS011;44782;0.000;0.000;2023-04-25T02:34:07;1.60;;;1.50;;
58992;SDS011;44782;0.000;0.000;2023-04-25T02:36:22;1.60;;;1.50;;
58992;SDS011;44782;0.000;0.000;2023-04-25T02:38:39;1.50;;;1.40;;
58992;SDS011;44782;0.000;0.000;2023-04-25T02:40:54;1.67;;;1.57;;
58992;SDS011;44782;0.000;0.000;2023-04-25T02:43:10;1.60;;;1.50;;
58992;SDS011;44782;0.000;0.000;2023-04-25T02:45:26;1.67;;;1.57;;
58992;SDS011;44782;0.000;0.000;2023-04-25T02:47:41;1.70;;;1.60;;
58992;SDS011;44782;0.000;0.000;2023-04-25T02:49:57;1.43;;;1.33;;
58992;SDS011;44782;0.000;0.000;2023-04-25T02:52:13;1.83;;;1.60;;
58992;SDS011;44782;0.000;0.000;2023-04-25T02:54:29;1.60;;;1.50;;
58992;SDS011;44782;0.000;0.000;2023-04-25T02:56:45;1.53;;;1.43;;
58992;SDS011;44782;0.000;0.000;2023-04-25T02:59:01;1.57;;;1.47;;
58992;SDS011;44782;0.000;0.000;2023-04-25T03:01:16;1.43;;;1.33;;
58992;SDS011;44782;0.000;0.000;2023-04-25T03:03:32;1.50;;;1.40;;
58992;SDS011;44782;0.000;0.000;2023-04-25T03:05:51;1.70;;;1.60;;
58992;SDS011;44782;0.000;0.000;2023-04-25T03:08:07;1.50;;;1.40;;
58992;SDS011;44782;0.000;0.000;2023-04-25T03:10:22;1.60;;;1.50;;
58992;SDS011;44782;0.000;0.000;2023-04-25T03:12:38;1.60;;;1.50;;
58992;SDS011;44782;0.000;0.000;2023-04-25T03:14:54;1.40;;;1.30;;
58992;SDS011;44782;0.000;0.000;2023-04-25T03:17:09;1.50;;;1.40;;
58992;SDS011;44782;0.000;0.000;2023-04-25T03:19:25;1.47;;;1.37;;
58992;SDS011;44782;0.000;0.000;2023-04-25T03:21:41;1.60;;;1.50;;
58992;SDS011;44782;0.000;0.000;2023-04-25T03:23:56;1.53;;;1.43;;
58992;SDS011;44782;0.000;0.000;2023-04-25T03:26:12;1.60;;;1.50;;
58992;SDS011;44782;0.000;0.000;2023-04-25T03:28:28;1.67;;;1.57;;
58992;SDS011;44782;0.000;0.000;2023-04-25T03:30:44;1.47;;;1.37;;
58992;SDS011;44782;0.000;0.000;2023-04-25T03:32:59;1.50;;;1.40;;
58992;SDS011;44782;0.000;0.000;2023-04-25T03:35:15;1.47;;;1.37;;
58992;SDS011;44782;0.000;0.000;2023-04-25T03:37:31;1.50;;;1.40;;
58992;SDS011;44782;0.000;0.000;2023-04-25T03:39:46;1.50;;;1.40;;
58992;SDS011;44782;0.000;0.000;2023-04-25T03:42:02;1.50;;;1.40;;
58992;SDS011;44782;0.000;0.000;2023-04-25T03:44:18;1.50;;;1.40;;
58992;SDS011;44782;0.000;0.000;2023-04-25T03:46:33;1.60;;;1.50;;
58992;SDS011;44782;0.000;0.000;2023-04-25T03:48:49;1.47;;;1.30;;
58992;SDS011;44782;0.000;0.000;2023-04-25T03:51:05;1.43;;;1.33;;
58992;SDS011;44782;0.000;0.000;2023-04-25T03:53:20;1.50;;;1.40;;
58992;SDS011;44782;0.000;0.000;2023-04-25T03:55:36;1.70;;;1.60;;
58992;SDS011;44782;0.000;0.000;2023-04-25T03:57:52;1.73;;;1.63;;
58992;SDS011;44782;0.000;0.000;2023-04-25T04:00:07;1.73;;;1.60;;
58992;SDS011;44782;0.000;0.000;2023-04-25T04:02:24;2.57;;;1.57;;
58992;SDS011;44782;0.000;0.000;2023-04-25T04:04:40;1.80;;;1.70;;
58992;SDS011;44782;0.000;0.000;2023-04-25T04:06:55;1.53;;;1.43;;
58992;SDS011;44782;0.000;0.000;2023-04-25T04:09:11;1.60;;;1.50;;
58992;SDS011;44782;0.000;0.000;2023-04-25T04:11:27;1.67;;;1.57;;
58992;SDS011;44782;0.000;0.000;2023-04-25T04:13:43;1.80;;;1.60;;
58992;SDS011;44782;0.000;0.000;2023-04-25T04:15:58;1.60;;;1.50;;
58992;SDS011;44782;0.000;0.000;2023-04-25T04:18:14;1.60;;;1.50;;
58992;SDS011;44782;0.000;0.000;2023-04-25T04:20:30;1.50;;;1.40;;
58992;SDS011;44782;0.000;0.000;2023-04-25T04:22:46;1.60;;;1.50;;
58992;SDS011;44782;0.000;0.000;2023-04-25T04:25:02;1.60;;;1.50;;
58992;SDS011;44782;0.000;0.000;2023-04-25T04:27:17;1.70;;;1.60;;
58992;SDS011;44782;0.000;0.000;2023-04-25T04:29:34;1.80;;;1.70;;
58992;SDS011;44782;0.000;0.000;2023-04-25T04:31:50;2.23;;;1.60;;
58992;SDS011;44782;0.000;0.000;2023-04-25T04:34:07;1.87;;;1.73;;
58992;SDS011;44782;0.000;0.000;2023-04-25T04:36:24;1.50;;;1.40;;
58992;SDS011;44782;0.000;0.000;2023-04-25T04:38:41;1.70;;;1.60;;
58992;SDS011;44782;0.000;0.000;2023-04-25T04:40:57;1.60;;;1.50;;
58992;SDS011;44782;0.000;0.000;2023-04-25T04:43:12;1.60;;;1.50;;
58992;SDS011;44782;0.000;0.000;2023-04-25T04:45:32;1.70;;;1.60;;
58992;SDS011;44782;0.000;0.000;2023-04-25T04:47:48;1.43;;;1.33;;
58992;SDS011;44782;0.000;0.000;2023-04-25T04:50:05;1.80;;;1.57;;
58992;SDS011;44782;0.000;0.000;2023-04-25T04:52:23;1.60;;;1.50;;
58992;SDS011;44782;0.000;0.000;2023-04-25T04:54:39;1.70;;;1.60;;
58992;SDS011;44782;0.000;0.000;2023-04-25T04:56:54;1.60;;;1.50;;
58992;SDS011;44782;0.000;0.000;2023-04-25T04:59:11;1.80;;;1.70;;
58992;SDS011;44782;0.000;0.000;2023-04-25T05:01:26;1.70;;;1.60;;
58992;SDS011;44782;0.000;0.000;2023-04-25T05:03:42;1.60;;;1.50;;
58992;SDS011;44782;0.000;0.000;2023-04-25T05:05:58;1.70;;;1.60;;
58992;SDS011;44782;0.000;0.000;2023-04-25T05:08:13;1.50;;;1.40;;
58992;SDS011;44782;0.000;0.000;2023-04-25T05:10:29;1.70;;;1.60;;
58992;SDS011;44782;0.000;0.000;2023-04-25T05:12:44;1.70;;;1.60;;
58992;SDS011;44782;0.000;0.000;2023-04-25T05:15:00;1.63;;;1.53;;
58992;SDS011;44782;0.000;0.000;2023-04-25T05:17:16;1.70;;;1.60;;
58992;SDS011;44782;0.000;0.000;2023-04-25T05:19:32;1.50;;;1.40;;
58992;SDS011;44782;0.000;0.000;2023-04-25T05:21:47;1.70;;;1.60;;
58992;SDS011;44782;0.000;0.000;2023-04-25T05:24:03;1.73;;;1.63;;
58992;SDS011;44782;0.000;0.000;2023-04-25T05:26:19;1.60;;;1.50;;
58992;SDS011;44782;0.000;0.000;2023-04-25T05:28:35;1.80;;;1.70;;
58992;SDS011;44782;0.000;0.000;2023-04-25T05:30:52;1.80;;;1.70;;
58992;SDS011;44782;0.000;0.000;2023-04-25T05:33:07;1.80;;;1.60;;
58992;SDS011;44782;0.000;0.000;2023-04-25T05:35:23;1.60;;;1.50;;
58992;SDS011;44782;0.000;0.000;2023-04-25T05:37:39;1.43;;;1.33;;
58992;SDS011;44782;0.000;0.000;2023-04-25T05:39:55;1.67;;;1.50;;
58992;SDS011;44782;0.000;0.000;2023-04-25T05:42:10;1.40;;;1.30;;
58992;SDS011;44782;0.000;0.000;2023-04-25T05:44:26;1.70;;;1.60;;
58992;SDS011;44782;0.000;0.000;2023-04-25T05:46:41;1.70;;;1.60;;
58992;SDS011;44782;0.000;0.000;2023-04-25T05:48:57;1.60;;;1.50;;
58992;SDS011;44782;0.000;0.000;2023-04-25T05:51:13;1.80;;;1.70;;
58992;SDS011;44782;0.000;0.000;2023-04-25T05:53:28;1.83;;;1.70;;
58992;SDS011;44782;0.000;0.000;2023-04-25T05:55:44;1.70;;;1.60;;
58992;SDS011;44782;0.000;0.000;2023-04-25T05:58:00;1.90;;;1.70;;
58992;SDS011;44782;0.000;0.000;2023-04-25T06:00:15;1.67;;;1.47;;
58992;SDS011;44782;0.000;0.000;2023-04-25T06:02:31;1.77;;;1.67;;
58992;SDS011;44782;0.000;0.000;2023-04-25T06:04:48;1.73;;;1.50;;
58992;SDS011;44782;0.000;0.000;2023-04-25T06:07:04;2.13;;;1.77;;
58992;SDS011;44782;0.000;0.000;2023-04-25T06:09:20;1.67;;;1.57;;
58992;SDS011;44782;0.000;0.000;2023-04-25T06:11:36;1.77;;;1.67;;
58992;SDS011;44782;0.000;0.000;2023-04-25T06:13:51;1.60;;;1.50;;
58992;SDS011;44782;0.000;0.000;2023-04-25T06:16:07;1.70;;;1.60;;
58992;SDS011;44782;0.000;0.000;2023-04-25T06:18:23;2.00;;;1.80;;
58992;SDS011;44782;0.000;0.000;2023-04-25T06:20:38;1.97;;;1.87;;
58992;SDS011;44782;0.000;0.000;2023-04-25T06:22:54;2.10;;;1.90;;
58992;SDS011;44782;0.000;0.000;2023-04-25T06:25:10;1.67;;;1.57;;
58992;SDS011;44782;0.000;0.000;2023-04-25T06:27:25;1.67;;;1.57;;
58992;SDS011;44782;0.000;0.000;2023-04-25T06:29:41;1.97;;;1.80;;
58992;SDS011;44782;0.000;0.000;2023-04-25T06:31:57;2.13;;;1.93;;
58992;SDS011;44782;0.000;0.000;2023-04-25T06:34:12;1.93;;;1.83;;
58992;SDS011;44782;0.000;0.000;2023-04-25T06:36:28;1.77;;;1.67;;
58992;SDS011;44782;0.000;0.000;2023-04-25T06:38:43;1.93;;;1.83;;
58992;SDS011;44782;0.000;0.000;2023-04-25T06:40:59;1.90;;;1.80;;
58992;SDS011;44782;0.000;0.000;2023-04-25T06:43:15;2.27;;;2.00;;
58992;SDS011;44782;0.000;0.000;2023-04-25T06:45:30;2.03;;;1.93;;
58992;SDS011;44782;0.000;0.000;2023-04-25T06:47:46;2.00;;;1.90;;
58992;SDS011;44782;0.000;0.000;2023-04-25T06:50:02;2.20;;;2.00;;
58992;SDS011;44782;0.000;0.000;2023-04-25T06:52:17;2.43;;;2.20;;
58992;SDS011;44782;0.000;0.000;2023-04-25T06:54:33;2.20;;;2.00;;
58992;SDS011;44782;0.000;0.000;2023-04-25T06:56:49;2.53;;;2.00;;
58992;SDS011;44782;0.000;0.000;2023-04-25T06:59:04;3.17;;;2.10;;
58992;SDS011;44782;0.000;0.000;2023-04-25T07:01:20;2.10;;;1.90;;
58992;SDS011;44782;0.000;0.000;2023-04-25T07:03:36;2.47;;;2.17;;
58992;SDS011;44782;0.000;0.000;2023-04-25T07:05:52;2.43;;;2.23;;
58992;SDS011;44782;0.000;0.000;2023-04-25T07:08:08;2.83;;;2.20;;
58992;SDS011;44782;0.000;0.000;2023-04-25T07:10:23;2.43;;;2.20;;
58992;SDS011;44782;0.000;0.000;2023-04-25T07:12:40;2.50;;;2.10;;
58992;SDS011;44782;0.000;0.000;2023-04-25T07:14:55;2.10;;;1.97;;
58992;SDS011;44782;0.000;0.000;2023-04-25T07:17:11;2.50;;;2.30;;
58992;SDS011;44782;0.000;0.000;2023-04-25T07:19:27;2.40;;;2.20;;
58992;SDS011;44782;0.000;0.000;2023-04-25T07:21:44;2.40;;;2.20;;
58992;SDS011;44782;0.000;0.000;2023-04-25T07:24:00;2.40;;;2.20;;
58992;SDS011;44782;0.000;0.000;2023-04-25T07:26:16;2.20;;;2.00;;
58992;SDS011;44782;0.000;0.000;2023-04-25T07:28:31;2.23;;;2.03;;
58992;SDS011;44782;0.000;0.000;2023-04-25T07:30:47;2.00;;;1.90;;
58992;SDS011;44782;0.000;0.000;2023-04-25T07:33:03;2.23;;;1.83;;
58992;SDS011;44782;0.000;0.000;2023-04-25T07:35:19;2.40;;;2.10;;
58992;SDS011;44782;0.000;0.000;2023-04-25T07:37:35;2.17;;;1.90;;
58992;SDS011;44782;0.000;0.000;2023-04-25T07:39:50;2.13;;;1.93;;
58992;SDS011;44782;0.000;0.000;2023-04-25T07:42:06;2.70;;;2.30;;
58992;SDS011;44782;0.000;0.000;2023-04-25T07:44:24;2.33;;;2.13;;
58992;SDS011;44782;0.000;0.000;2023-04-25T07:46:40;2.40;;;1.90;;
58992;SDS011;44782;0.000;0.000;2023-04-25T07:48:56;2.40;;;2.10;;
58992;SDS011;44782;0.000;0.000;2023-04-25T07:51:12;2.03;;;1.83;;
58992;SDS011;44782;0.000;0.000;2023-04-25T07:53:27;3.27;;;2.20;;
58992;SDS011;44782;0.000;0.000;2023-04-25T07:55:43;2.50;;;2.10;;
58992;SDS011;44782;0.000;0.000;2023-04-25T07:57:58;2.47;;;1.90;;
58992;SDS011;44782;0.000;0.000;2023-04-25T08:00:14;2.20;;;2.00;;
58992;SDS011;44782;0.000;0.000;2023-04-25T08:02:30;2.30;;;1.90;;
58992;SDS011;44782;0.000;0.000;2023-04-25T08:04:46;2.20;;;1.87;;
58992;SDS011;44782;0.000;0.000;2023-04-25T08:07:01;2.70;;;1.87;;
58992;SDS011;44782;0.000;0.000;2023-04-25T08:09:17;2.20;;;2.00;;
58992;SDS011;44782;0.000;0.000;2023-04-25T08:11:33;2.33;;;1.90;;
58992;SDS011;44782;0.000;0.000;2023-04-25T08:13:48;3.60;;;2.10;;
58992;SDS011;44782;0.000;0.000;2023-04-25T08:16:04;1.77;;;1.67;;
58992;SDS011;44782;0.000;0.000;2023-04-25T08:18:20;2.37;;;2.07;;
58992;SDS011;44782;0.000;0.000;2023-04-25T08:20:35;3.53;;;1.90;;
58992;SDS011;44782;0.000;0.000;2023-04-25T08:22:51;2.50;;;2.00;;
58992;SDS011;44782;0.000;0.000;2023-04-25T08:25:07;2.27;;;1.90;;
58992;SDS011;44782;0.000;0.000;2023-04-25T08:27:22;2.40;;;2.00;;
58992;SDS011;44782;0.000;0.000;2023-04-25T08:29:38;2.70;;;2.00;;
58992;SDS011;44782;0.000;0.000;2023-04-25T08:31:54;2.70;;;1.87;;
58992;SDS011;44782;0.000;0.000;2023-04-25T08:34:10;2.27;;;1.80;;
58992;SDS011;44782;0.000;0.000;2023-04-25T08:36:26;2.03;;;1.80;;
58992;SDS011;44782;0.000;0.000;2023-04-25T08:38:42;2.70;;;2.10;;
58992;SDS011;44782;0.000;0.000;2023-04-25T08:40:58;2.10;;;1.90;;
58992;SDS011;44782;0.000;0.000;2023-04-25T08:43:16;2.80;;;2.03;;
58992;SDS011;44782;0.000;0.000;2023-04-25T08:45:34;2.57;;;2.10;;
58992;SDS011;44782;0.000;0.000;2023-04-25T08:47:51;2.53;;;1.83;;
58992;SDS011;44782;0.000;0.000;2023-04-25T08:50:08;3.30;;;1.90;;
58992;SDS011;44782;0.000;0.000;2023-04-25T08:52:24;2.30;;;1.80;;
58992;SDS011;44782;0.000;0.000;2023-04-25T08:54:45;3.47;;;2.20;;
58992;SDS011;44782;0.000;0.000;2023-04-25T08:57:04;2.47;;;1.93;;
58992;SDS011;44782;0.000;0.000;2023-04-25T08:59:22;3.00;;;2.00;;
58992;SDS011;44782;0.000;0.000;2023-04-25T09:01:38;2.53;;;2.07;;
58992;SDS011;44782;0.000;0.000;2023-04-25T09:03:53;2.40;;;2.00;;
58992;SDS011;44782;0.000;0.000;2023-04-25T09:06:10;2.30;;;1.90;;
58992;SDS011;44782;0.000;0.000;2023-04-25T09:08:26;2.43;;;1.70;;
58992;SDS011;44782;0.000;0.000;2023-04-25T09:10:42;1.93;;;1.70;;
58992;SDS011;44782;0.000;0.000;2023-04-25T09:15:30;2.10;;;1.90;;
58992;SDS011;44782;0.000;0.000;2023-04-25T09:17:47;2.43;;;1.70;;
58992;SDS011;44782;0.000;0.000;2023-04-25T09:20:16;2.70;;;1.80;;
58992;SDS011;44782;0.000;0.000;2023-04-25T09:22:32;2.47;;;2.00;;
58992;SDS011;44782;0.000;0.000;2023-04-25T09:24:48;2.57;;;1.90;;
58992;SDS011;44782;0.000;0.000;2023-04-25T09:27:06;3.07;;;1.90;;
58992;SDS011;44782;0.000;0.000;2023-04-25T09:29:57;2.60;;;2.03;;
58992;SDS011;44782;0.000;0.000;2023-04-25T09:34:38;2.67;;;1.93;;
58992;SDS011;44782;0.000;0.000;2023-04-25T09:37:01;2.60;;;2.00;;
58992;SDS011;44782;0.000;0.000;2023-04-25T09:39:17;2.00;;;1.90;;
58992;SDS011;44782;0.000;0.000;2023-04-25T09:41:37;2.10;;;1.90;;
58992;SDS011;44782;0.000;0.000;2023-04-25T09:43:56;1.90;;;1.70;;
58992;SDS011;44782;0.000;0.000;2023-04-25T09:46:13;2.97;;;1.97;;
58992;SDS011;44782;0.000;0.000;2023-04-25T09:48:29;2.30;;;1.73;;
58992;SDS011;44782;0.000;0.000;2023-04-25T09:50:44;2.17;;;1.90;;
58992;SDS011;44782;0.000;0.000;2023-04-25T09:53:03;2.57;;;1.90;;
58992;SDS011;44782;0.000;0.000;2023-04-25T09:55:20;2.47;;;2.03;;
58992;SDS011;44782;0.000;0.000;2023-04-25T09:57:36;2.83;;;1.93;;
58992;SDS011;44782;0.000;0.000;2023-04-25T09:59:55;2.53;;;1.83;;
58992;SDS011;44782;0.000;0.000;2023-04-25T10:02:11;3.70;;;1.87;;
58992;SDS011;44782;0.000;0.000;2023-04-25T10:04:28;2.47;;;1.83;;
58992;SDS011;44782;0.000;0.000;2023-04-25T10:06:49;5.10;;;2.30;;
58992;SDS011;44782;0.000;0.000;2023-04-25T10:09:07;2.27;;;1.90;;
58992;SDS011;44782;0.000;0.000;2023-04-25T10:11:22;3.03;;;2.10;;
58992;SDS011;44782;0.000;0.000;2023-04-25T10:13:41;2.30;;;1.90;;
58992;SDS011;44782;0.000;0.000;2023-04-25T10:15:58;2.30;;;1.90;;
58992;SDS011;44782;0.000;0.000;2023-04-25T10:18:15;2.57;;;1.80;;
58992;SDS011;44782;0.000;0.000;2023-04-25T10:20:33;2.03;;;1.70;;
58992;SDS011;44782;0.000;0.000;2023-04-25T10:22:49;2.13;;;1.77;;
58992;SDS011;44782;0.000;0.000;2023-04-25T10:25:11;1.90;;;1.67;;
58992;SDS011;44782;0.000;0.000;2023-04-25T10:27:31;2.60;;;1.90;;
58992;SDS011;44782;0.000;0.000;2023-04-25T10:29:49;2.53;;;1.93;;
58992;SDS011;44782;0.000;0.000;2023-04-25T10:32:19;2.50;;;1.80;;
58992;SDS011;44782;0.000;0.000;2023-04-25T10:34:39;2.20;;;1.90;;
58992;SDS011;44782;0.000;0.000;2023-04-25T10:37:01;3.50;;;1.60;;
58992;SDS011;44782;0.000;0.000;2023-04-25T10:39:24;2.27;;;1.73;;
58992;SDS011;44782;0.000;0.000;2023-04-25T10:41:45;2.17;;;1.73;;
58992;SDS011;44782;0.000;0.000;2023-04-25T10:44:03;2.60;;;1.90;;
58992;SDS011;44782;0.000;0.000;2023-04-25T10:48:43;2.90;;;1.90;;
58992;SDS011;44782;0.000;0.000;2023-04-25T10:51:08;2.07;;;1.63;;
58992;SDS011;44782;0.000;0.000;2023-04-25T10:53:24;2.07;;;1.70;;
58992;SDS011;44782;0.000;0.000;2023-04-25T10:55:49;2.63;;;1.73;;
58992;SDS011;44782;0.000;0.000;2023-04-25T10:58:06;1.83;;;1.70;;
58992;SDS011;44782;0.000;0.000;2023-04-25T11:00:22;2.10;;;1.70;;
58992;SDS011;44782;0.000;0.000;2023-04-25T11:05:06;2.40;;;1.70;;
58992;SDS011;44782;0.000;0.000;2023-04-25T11:07:32;2.37;;;1.63;;
58992;SDS011;44782;0.000;0.000;2023-04-25T11:09:52;2.10;;;1.80;;
58992;SDS011;44782;0.000;0.000;2023-04-25T11:12:09;2.20;;;1.80;;
58992;SDS011;44782;0.000;0.000;2023-04-25T11:14:26;1.93;;;1.60;;
58992;SDS011;44782;0.000;0.000;2023-04-25T11:16:42;2.10;;;1.90;;
58992;SDS011;44782;0.000;0.000;2023-04-25T11:18:58;1.97;;;1.60;;
58992;SDS011;44782;0.000;0.000;2023-04-25T11:21:14;1.80;;;1.50;;
58992;SDS011;44782;0.000;0.000;2023-04-25T11:23:30;1.80;;;1.50;;
58992;SDS011;44782;0.000;0.000;2023-04-25T11:25:46;2.87;;;1.80;;
58992;SDS011;44782;0.000;0.000;2023-04-25T11:28:02;2.03;;;1.40;;
58992;SDS011;44782;0.000;0.000;2023-04-25T11:30:19;2.23;;;1.50;;
58992;SDS011;44782;0.000;0.000;2023-04-25T11:32:35;1.73;;;1.53;;
58992;SDS011;44782;0.000;0.000;2023-04-25T11:34:52;2.57;;;1.77;;
58992;SDS011;44782;0.000;0.000;2023-04-25T11:37:08;2.33;;;1.90;;
58992;SDS011;44782;0.000;0.000;2023-04-25T11:39:24;1.60;;;1.50;;
58992;SDS011;44782;0.000;0.000;2023-04-25T11:41:40;4.03;;;1.80;;
58992;SDS011;44782;0.000;0.000;2023-04-25T11:43:57;2.57;;;1.97;;
58992;SDS011;44782;0.000;0.000;2023-04-25T11:46:12;1.97;;;1.70;;
58992;SDS011;44782;0.000;0.000;2023-04-25T11:48:28;2.77;;;1.80;;
58992;SDS011;44782;0.000;0.000;2023-04-25T11:50:55;2.50;;;2.07;;
58992;SDS011;44782;0.000;0.000;2023-04-25T11:53:10;2.37;;;1.60;;
58992;SDS011;44782;0.000;0.000;2023-04-25T11:55:26;2.27;;;1.80;;
58992;SDS011;44782;0.000;0.000;2023-04-25T11:57:46;1.70;;;1.60;;
58992;SDS011;44782;0.000;0.000;2023-04-25T12:00:07;1.77;;;1.67;;
58992;SDS011;44782;0.000;0.000;2023-04-25T12:02:28;2.20;;;1.63;;
58992;SDS011;44782;0.000;0.000;2023-04-25T12:04:44;1.97;;;1.67;;
58992;SDS011;44782;0.000;0.000;2023-04-25T12:07:00;2.33;;;1.60;;
58992;SDS011;44782;0.000;0.000;2023-04-25T12:09:17;2.17;;;1.50;;
58992;SDS011;44782;0.000;0.000;2023-04-25T12:11:44;2.83;;;1.60;;
58992;SDS011;44782;0.000;0.000;2023-04-25T12:14:03;2.23;;;1.73;;
58992;SDS011;44782;0.000;0.000;2023-04-25T12:16:22;1.60;;;1.50;;
58992;SDS011;44782;0.000;0.000;2023-04-25T12:18:38;2.23;;;1.60;;
58992;SDS011;44782;0.000;0.000;2023-04-25T12:20:54;2.40;;;1.70;;
58992;SDS011;44782;0.000;0.000;2023-04-25T12:23:10;2.70;;;1.90;;
58992;SDS011;44782;0.000;0.000;2023-04-25T12:25:40;2.33;;;1.70;;
58992;SDS011;44782;0.000;0.000;2023-04-25T12:28:08;2.07;;;1.67;;
58992;SDS011;44782;0.000;0.000;2023-04-25T12:30:28;3.70;;;2.00;;
58992;SDS011;44782;0.000;0.000;2023-04-25T12:32:44;2.00;;;1.60;;
58992;SDS011;44782;0.000;0.000;2023-04-25T12:35:00;2.23;;;1.70;;
58992;SDS011;44782;0.000;0.000;2023-04-25T12:37:16;2.83;;;1.83;;
58992;SDS011;44782;0.000;0.000;2023-04-25T12:39:31;2.80;;;1.90;;
58992;SDS011;44782;0.000;0.000;2023-04-25T12:41:50;2.27;;;1.80;;
58992;SDS011;44782;0.000;0.000;2023-04-25T12:44:08;3.33;;;1.63;;
58992;SDS011;44782;0.000;0.000;2023-04-25T12:46:24;2.57;;;1.80;;
58992;SDS011;44782;0.000;0.000;2023-04-25T12:48:40;2.33;;;1.60;;
58992;SDS011;44782;0.000;0.000;2023-04-25T12:50:56;2.63;;;1.60;;
58992;SDS011;44782;0.000;0.000;2023-04-25T12:53:12;2.73;;;1.70;;
58992;SDS011;44782;0.000;0.000;2023-04-25T12:55:28;2.27;;;1.70;;
58992;SDS011;44782;0.000;0.000;2023-04-25T12:57:44;2.47;;;1.67;;
58992;SDS011;44782;0.000;0.000;2023-04-25T13:00:00;2.00;;;1.57;;
58992;SDS011;44782;0.000;0.000;2023-04-25T13:02:15;2.57;;;1.87;;
58992;SDS011;44782;0.000;0.000;2023-04-25T13:04:31;1.90;;;1.50;;
58992;SDS011;44782;0.000;0.000;2023-04-25T13:06:47;2.33;;;1.67;;
58992;SDS011;44782;0.000;0.000;2023-04-25T13:09:02;1.90;;;1.57;;
58992;SDS011;44782;0.000;0.000;2023-04-25T13:11:18;2.60;;;1.60;;
58992;SDS011;44782;0.000;0.000;2023-04-25T13:13:34;1.97;;;1.67;;
58992;SDS011;44782;0.000;0.000;2023-04-25T13:15:50;2.33;;;1.67;;
58992;SDS011;44782;0.000;0.000;2023-04-25T13:18:05;2.00;;;1.80;;
58992;SDS011;44782;0.000;0.000;2023-04-25T13:20:21;2.63;;;1.80;;
58992;SDS011;44782;0.000;0.000;2023-04-25T13:22:38;1.90;;;1.77;;
58992;SDS011;44782;0.000;0.000;2023-04-25T13:24:54;1.80;;;1.53;;
58992;SDS011;44782;0.000;0.000;2023-04-25T13:27:09;1.63;;;1.47;;
58992;SDS011;44782;0.000;0.000;2023-04-25T13:29:25;2.27;;;1.70;;
58992;SDS011;44782;0.000;0.000;2023-04-25T13:31:41;1.73;;;1.53;;
58992;SDS011;44782;0.000;0.000;2023-04-25T13:33:56;2.70;;;1.70;;
58992;SDS011;44782;0.000;0.000;2023-04-25T13:36:12;1.57;;;1.47;;
58992;SDS011;44782;0.000;0.000;2023-04-25T13:38:28;2.67;;;1.80;;
58992;SDS011;44782;0.000;0.000;2023-04-25T13:40:43;2.20;;;1.70;;
58992;SDS011;44782;0.000;0.000;2023-04-25T13:42:59;1.70;;;1.60;;
58992;SDS011;44782;0.000;0.000;2023-04-25T13:45:15;2.03;;;1.70;;
58992;SDS011;44782;0.000;0.000;2023-04-25T13:47:31;2.87;;;1.60;;
58992;SDS011;44782;0.000;0.000;2023-04-25T13:49:46;2.20;;;1.70;;
58992;SDS011;44782;0.000;0.000;2023-04-25T13:52:02;1.70;;;1.50;;
58992;SDS011;44782;0.000;0.000;2023-04-25T13:54:17;2.53;;;1.93;;
58992;SDS011;44782;0.000;0.000;2023-04-25T13:56:33;2.17;;;1.60;;
58992;SDS011;44782;0.000;0.000;2023-04-25T13:58:52;2.47;;;1.90;;
58992;SDS011;44782;0.000;0.000;2023-04-25T14:01:08;2.03;;;1.80;;
58992;SDS011;44782;0.000;0.000;2023-04-25T14:03:23;2.77;;;1.80;;
58992;SDS011;44782;0.000;0.000;2023-04-25T14:05:39;2.00;;;1.80;;